createdAt,value
2019-03-26T00:00:02.462Z,1.9
2019-03-26T00:15:02.890Z,1.8
2019-03-26T00:30:03.289Z,1.7
2019-03-26T00:45:02.589Z,1.3
2019-03-26T01:00:02.876Z,1.4
2019-03-26T01:15:03.071Z,1.6
2019-03-26T01:30:02.670Z,1.7
2019-03-26T01:45:02.994Z,1.6
2019-03-26T02:00:03.229Z,1.6
2019-03-26T02:15:02.485Z,1.8
2019-03-26T02:30:02.869Z,1.6
2019-03-26T02:45:03.184Z,1.6
2019-03-26T03:00:02.461Z,1.4
2019-03-26T03:15:02.862Z,1.4
2019-03-26T03:30:03.229Z,1.2
2019-03-26T03:45:02.632Z,1
2019-03-26T04:00:02.984Z,0.6
2019-03-26T04:15:03.312Z,0.9
2019-03-26T04:30:02.976Z,0.8
2019-03-26T04:45:04.178Z,1
2019-03-26T05:00:02.824Z,1.1
2019-03-26T05:15:03.143Z,1.2
2019-03-26T05:30:02.524Z,1.4
2019-03-26T05:45:02.819Z,1.5
2019-03-26T06:00:03.139Z,1.6
2019-03-26T06:15:03.452Z,1.8
2019-03-26T06:30:02.996Z,1.9
2019-03-26T06:45:03.306Z,2
2019-03-26T07:00:02.540Z,2.1
2019-03-26T07:15:02.887Z,2.3
2019-03-26T07:30:03.284Z,2.4
2019-03-26T07:45:02.569Z,2.7
2019-03-26T08:00:02.977Z,3
2019-03-26T08:15:02.519Z,3.3
2019-03-26T08:30:03.147Z,3.6
2019-03-26T08:45:02.500Z,3.9
2019-03-26T09:00:02.897Z,4.8
2019-03-26T09:15:03.213Z,5.5
2019-03-26T09:30:02.711Z,5.8
2019-03-26T09:45:02.911Z,5.4
2019-03-26T10:00:03.451Z,5.2
2019-03-26T10:15:02.620Z,6
2019-03-26T10:30:05.601Z,5.8
2019-03-26T10:45:03.169Z,6.2
2019-03-26T11:00:03.449Z,8.1
2019-03-26T11:15:02.823Z,8.1
2019-03-26T11:30:03.144Z,7.2
2019-03-26T11:45:02.520Z,6.4
2019-03-26T12:00:02.985Z,6.5
2019-03-26T12:15:02.585Z,8.4
2019-03-26T12:30:03.215Z,7.4
2019-03-26T12:45:02.511Z,7.2
2019-03-26T13:00:02.743Z,7.4
2019-03-26T13:15:03.070Z,7.9
2019-03-26T13:30:03.302Z,8.8
2019-03-26T13:45:02.592Z,8.2
2019-03-26T14:00:02.846Z,8.2
2019-03-26T14:15:03.455Z,7.8
2019-03-26T14:30:02.500Z,7.7
2019-03-26T14:45:02.982Z,8
2019-03-26T15:00:03.294Z,7.6
2019-03-26T15:15:02.807Z,7.5
2019-03-26T15:30:03.465Z,7.9
2019-03-26T15:45:02.901Z,7.5
2019-03-26T16:00:03.224Z,7.8
2019-03-26T16:15:02.505Z,7.4
2019-03-26T16:30:02.987Z,7.3
2019-03-26T16:45:02.495Z,7.1
2019-03-26T17:00:03.046Z,6.9
2019-03-26T17:15:02.579Z,6.6
2019-03-26T17:30:02.976Z,6.3
2019-03-26T17:45:03.297Z,6.1
2019-03-26T18:00:02.576Z,5.9
2019-03-26T18:15:02.817Z,5.8
2019-03-26T18:30:03.227Z,5.6
2019-03-26T18:45:02.499Z,5.4
2019-03-26T19:00:02.811Z,5.2
2019-03-26T19:15:03.077Z,5.2
2019-03-26T19:30:02.734Z,5.1
2019-03-26T19:45:03.237Z,4.9
2019-03-26T20:00:02.469Z,4.9
2019-03-26T20:15:02.772Z,4.9
2019-03-26T20:30:03.203Z,4.9
2019-03-26T20:45:02.452Z,4.9
2019-03-26T21:00:02.966Z,4.8
2019-03-26T21:15:02.501Z,4.7
2019-03-26T21:30:10.393Z,4.7
2019-03-26T21:45:03.007Z,4.7
2019-03-26T22:00:03.322Z,4.7
2019-03-26T22:15:02.569Z,4.6
2019-03-26T22:30:02.901Z,4.6
2019-03-26T22:45:03.172Z,4.5
2019-03-26T23:00:02.475Z,4.4
2019-03-26T23:15:02.805Z,4.4
2019-03-26T23:30:03.194Z,4.2
2019-03-26T23:45:02.457Z,4.2
